createdAt,value
2018-10-19T00:01:16.727Z,40.85
2018-10-19T00:03:46.772Z,35.90
2018-10-19T00:06:16.855Z,38.17
2018-10-19T00:08:46.968Z,38.02
2018-10-19T00:11:16.807Z,40.15
2018-10-19T00:13:47.009Z,37.98
2018-10-19T00:16:16.960Z,38.70
2018-10-19T00:18:47.065Z,39.38
2018-10-19T00:21:17.022Z,34.05
2018-10-19T00:23:47.002Z,35.25
2018-10-19T00:26:17.832Z,36.25
2018-10-19T00:28:47.171Z,38.83
2018-10-19T00:31:17.382Z,37.30
2018-10-19T00:33:47.997Z,38.90
2018-10-19T00:36:17.799Z,38.23
2018-10-19T00:38:47.446Z,37.42
2018-10-19T00:41:17.361Z,38.77
2018-10-19T00:43:47.354Z,37.00
2018-10-19T00:46:17.314Z,35.55
2018-10-19T00:48:47.463Z,39.03
2018-10-19T00:51:17.636Z,34.38
2018-10-19T00:53:47.518Z,35.60
2018-10-19T00:56:17.490Z,35.48
2018-10-19T00:58:48.683Z,36.28
2018-10-19T01:01:17.886Z,36.00
2018-10-19T01:03:47.545Z,36.58
2018-10-19T01:06:17.600Z,36.80
2018-10-19T01:08:47.615Z,36.38
2018-10-19T01:11:17.846Z,38.60
2018-10-19T01:13:47.746Z,40.15
2018-10-19T01:16:17.858Z,33.98
2018-10-19T01:18:47.882Z,39.45
2018-10-19T01:21:17.858Z,38.45
2018-10-19T01:23:47.840Z,37.13
2018-10-19T01:26:17.830Z,39.40
2018-10-19T01:28:47.855Z,36.85
2018-10-19T01:31:18.086Z,36.85
2018-10-19T01:33:47.950Z,37.28
2018-10-19T01:36:17.953Z,38.00
2018-10-19T01:38:48.060Z,37.45
2018-10-19T01:41:18.103Z,40.58
2018-10-19T01:43:47.989Z,38.73
2018-10-19T01:46:18.106Z,37.96
2018-10-19T01:48:48.058Z,35.50
2018-10-19T01:51:18.194Z,35.16
2018-10-19T01:53:48.198Z,37.03
2018-10-19T01:56:18.244Z,36.65
2018-10-19T01:58:48.409Z,36.45
2018-10-19T02:01:18.345Z,38.75
2018-10-19T02:03:48.414Z,37.95
2018-10-19T02:06:18.410Z,36.33
2018-10-19T02:08:48.477Z,35.58
2018-10-19T02:11:18.518Z,34.58
2018-10-19T02:13:48.467Z,36.88
2018-10-19T02:16:18.542Z,37.95
2018-10-19T02:18:48.560Z,35.28
2018-10-19T02:21:18.584Z,35.30
2018-10-19T02:23:48.666Z,37.48
2018-10-19T02:26:18.723Z,35.15
2018-10-19T02:28:48.721Z,35.75
2018-10-19T02:31:18.675Z,34.33
2018-10-19T02:33:48.754Z,33.02
2018-10-19T02:36:18.762Z,31.15
2018-10-19T02:38:50.074Z,34.25
2018-10-19T02:41:19.208Z,35.00
2018-10-19T02:43:48.841Z,32.67
2018-10-19T02:46:18.902Z,36.93
2018-10-19T02:48:49.006Z,37.58
2018-10-19T02:51:19.061Z,36.45
2018-10-19T02:53:49.058Z,34.95
2018-10-19T02:56:19.050Z,33.33
2018-10-19T02:58:49.175Z,37.13
2018-10-19T03:01:19.126Z,35.43
2018-10-19T03:03:49.140Z,35.33
2018-10-19T03:06:19.069Z,37.78
2018-10-19T03:08:49.175Z,34.92
2018-10-19T03:11:19.280Z,36.70
2018-10-19T03:13:49.283Z,40.80
2018-10-19T03:16:19.291Z,43.17
2018-10-19T03:18:49.448Z,40.83
2018-10-19T03:21:19.490Z,41.20
2018-10-19T03:23:49.470Z,43.87
2018-10-19T03:26:20.435Z,40.60
2018-10-19T03:28:49.573Z,40.70
2018-10-19T03:31:19.587Z,40.00
2018-10-19T03:33:49.662Z,43.40
2018-10-19T03:36:19.830Z,42.88
2018-10-19T03:38:49.667Z,41.02
2018-10-19T03:41:19.771Z,47.58
2018-10-19T03:43:49.763Z,48.58
2018-10-19T03:46:19.770Z,43.33
2018-10-19T03:48:49.888Z,40.43
2018-10-19T03:51:19.992Z,43.08
2018-10-19T03:53:49.920Z,38.15
2018-10-19T03:56:19.938Z,37.58
2018-10-19T03:58:51.096Z,38.70
2018-10-19T04:01:20.214Z,37.33
2018-10-19T04:03:50.074Z,37.75
2018-10-19T04:06:20.127Z,38.85
2018-10-19T04:08:50.181Z,41.18
2018-10-19T04:11:20.250Z,40.50
2018-10-19T04:13:50.160Z,39.17
2018-10-19T04:16:20.270Z,40.43
2018-10-19T04:18:50.219Z,43.28
2018-10-19T04:21:21.535Z,39.48
2018-10-19T04:23:50.743Z,41.23
2018-10-19T04:26:20.420Z,40.60
2018-10-19T04:28:50.489Z,41.33
2018-10-19T04:31:20.488Z,41.10
2018-10-19T04:33:50.613Z,42.53
2018-10-19T04:36:20.582Z,45.43
2018-10-19T04:38:50.580Z,39.53
2018-10-19T04:41:20.770Z,41.85
2018-10-19T04:43:50.723Z,45.92
2018-10-19T04:46:20.782Z,46.58
2018-10-19T04:48:50.811Z,49.90
2018-10-19T04:51:20.774Z,46.98
2018-10-19T04:53:51.070Z,47.88
2018-10-19T04:56:20.952Z,47.58
2018-10-19T04:58:50.914Z,45.63
2018-10-19T05:01:21.087Z,47.98
2018-10-19T05:03:50.938Z,42.35
2018-10-19T05:06:21.070Z,40.73
2018-10-19T05:08:51.023Z,40.58
2018-10-19T05:11:21.047Z,42.67
2018-10-19T05:13:51.118Z,40.08
2018-10-19T05:16:21.159Z,40.00
2018-10-19T05:18:51.160Z,42.90
2018-10-19T05:21:21.210Z,41.23
2018-10-19T05:23:51.242Z,42.13
2018-10-19T05:26:21.237Z,42.53
2018-10-19T05:28:51.327Z,45.45
2018-10-19T05:31:23.979Z,42.20
2018-10-19T05:33:55.717Z,44.03
2018-10-19T05:36:25.141Z,43.50
2018-10-19T05:38:54.330Z,42.57
2018-10-19T05:41:23.472Z,44.57
2018-10-19T05:43:52.703Z,43.87
2018-10-19T05:46:21.810Z,44.03
2018-10-19T05:48:51.630Z,42.00
2018-10-19T05:51:21.754Z,43.15
2018-10-19T05:53:52.869Z,42.10
2018-10-19T05:56:22.072Z,44.23
2018-10-19T05:58:53.691Z,43.52
2018-10-19T06:01:24.016Z,42.13
2018-10-19T06:03:53.195Z,42.83
2018-10-19T06:06:22.380Z,42.07
2018-10-19T06:08:51.904Z,42.33
2018-10-19T06:11:21.987Z,44.95
2018-10-19T06:13:51.926Z,47.43
2018-10-19T06:16:22.859Z,45.43
2018-10-19T06:18:51.986Z,43.77
2018-10-19T06:21:22.024Z,43.52
2018-10-19T06:23:52.138Z,44.75
2018-10-19T06:26:22.137Z,43.40
2018-10-19T06:28:52.242Z,43.30
2018-10-19T06:31:22.085Z,45.33
2018-10-19T06:33:52.304Z,43.20
2018-10-19T06:36:22.160Z,44.00
2018-10-19T06:38:52.234Z,43.65
2018-10-19T06:41:25.407Z,47.80
2018-10-19T06:43:54.789Z,47.93
2018-10-19T06:46:23.898Z,44.80
2018-10-19T06:48:53.120Z,41.70
2018-10-19T06:51:22.515Z,48.28
2018-10-19T06:53:52.461Z,42.57
2018-10-19T06:56:22.583Z,47.60
2018-10-19T06:58:52.592Z,44.63
2018-10-19T07:01:22.721Z,42.08
2018-10-19T07:03:52.904Z,40.08
2018-10-19T07:06:22.595Z,44.30
2018-10-19T07:08:52.618Z,44.90
2018-10-19T07:11:23.054Z,59.60
2018-10-19T07:13:52.838Z,44.38
2018-10-19T07:16:22.914Z,44.83
2018-10-19T07:18:52.892Z,41.13
2018-10-19T07:21:22.939Z,42.70
2018-10-19T07:23:53.179Z,40.90
2018-10-19T07:26:23.070Z,41.77
2018-10-19T07:28:53.091Z,46.13
2018-10-19T07:31:23.030Z,44.60
2018-10-19T07:33:53.654Z,45.15
2018-10-19T07:36:23.413Z,42.60
2018-10-19T07:38:53.082Z,50.83
2018-10-19T07:41:23.093Z,41.85
2018-10-19T07:43:53.185Z,36.42
2018-10-19T07:46:23.279Z,38.33
2018-10-19T07:48:53.285Z,39.70
2018-10-19T07:51:23.329Z,39.65
2018-10-19T07:53:53.440Z,71.00
2018-10-19T07:56:23.530Z,42.73
2018-10-19T07:58:53.441Z,38.28
2018-10-19T08:01:23.556Z,39.15
2018-10-19T08:03:53.530Z,39.05
2018-10-19T08:06:23.529Z,38.05
2018-10-19T08:08:53.746Z,39.85
2018-10-19T08:11:23.879Z,39.33
2018-10-19T08:13:53.802Z,39.88
2018-10-19T08:16:23.746Z,40.50
2018-10-19T08:18:53.778Z,42.58
2018-10-19T08:21:23.748Z,43.45
2018-10-19T08:23:53.906Z,45.43
2018-10-19T08:26:23.906Z,46.77
2018-10-19T08:28:53.979Z,51.92
2018-10-19T08:31:24.025Z,49.90
2018-10-19T08:33:54.227Z,47.83
2018-10-19T08:36:24.419Z,48.87
2018-10-19T08:38:54.133Z,48.70
2018-10-19T08:41:24.447Z,48.52
2018-10-19T08:43:54.242Z,51.70
2018-10-19T08:46:29.636Z,49.33
2018-10-19T08:48:58.915Z,48.58
2018-10-19T08:51:28.144Z,50.20
2018-10-19T08:53:58.069Z,48.07
2018-10-19T08:56:27.485Z,47.93
2018-10-19T08:58:56.649Z,53.20
2018-10-19T09:01:26.469Z,47.97
2018-10-19T09:03:55.729Z,53.50
2018-10-19T09:06:24.875Z,51.53
2018-10-19T09:08:54.674Z,49.90
2018-10-19T09:11:25.091Z,53.00
2018-10-19T09:13:54.706Z,51.60
2018-10-19T09:16:25.025Z,52.67
2018-10-19T09:18:54.834Z,51.15
2018-10-19T09:21:24.795Z,49.70
2018-10-19T09:23:59.823Z,52.50
2018-10-19T09:26:31.442Z,48.77
2018-10-19T09:29:00.661Z,50.92
2018-10-19T09:31:29.768Z,50.75
2018-10-19T09:33:58.858Z,49.93
2018-10-19T09:36:28.175Z,52.33
2018-10-19T09:38:57.319Z,55.30
2018-10-19T09:41:27.341Z,52.65
2018-10-19T09:43:56.507Z,48.50
2018-10-19T09:46:25.712Z,63.13
2018-10-19T09:48:58.972Z,53.63
2018-10-19T09:51:28.074Z,51.80
2018-10-19T09:53:57.269Z,52.03
2018-10-19T09:56:27.353Z,54.88
2018-10-19T09:58:56.494Z,55.60
2018-10-19T10:01:29.639Z,52.23
2018-10-19T10:03:58.749Z,53.23
2018-10-19T10:06:28.255Z,54.70
2018-10-19T10:08:57.470Z,52.57
2018-10-19T10:11:27.626Z,52.13
2018-10-19T10:13:56.781Z,54.70
2018-10-19T10:16:25.918Z,55.80
2018-10-19T10:18:55.699Z,51.75
2018-10-19T10:21:25.563Z,51.58
2018-10-19T10:23:55.574Z,53.63
2018-10-19T10:26:25.630Z,54.75
2018-10-19T10:28:55.865Z,55.85
2018-10-19T10:31:25.841Z,59.20
2018-10-19T10:33:55.762Z,63.42
2018-10-19T10:36:25.853Z,53.80
2018-10-19T10:38:55.949Z,56.00
2018-10-19T10:41:25.947Z,56.00
2018-10-19T10:43:55.895Z,56.60
2018-10-19T10:46:27.222Z,60.03
2018-10-19T10:48:56.498Z,56.43
2018-10-19T10:51:27.167Z,58.42
2018-10-19T10:53:56.354Z,58.30
2018-10-19T10:56:27.274Z,58.10
2018-10-19T10:58:56.339Z,56.23
2018-10-19T11:06:23.595Z,52.97
2018-10-19T11:08:52.725Z,53.13
2018-10-19T11:11:21.810Z,57.20
2018-10-19T11:13:50.936Z,56.57
2018-10-19T11:16:20.106Z,55.53
2018-10-19T11:18:50.652Z,58.67
2018-10-19T11:21:19.825Z,56.95
2018-10-19T11:23:49.037Z,58.73
2018-10-19T11:26:18.194Z,59.17
2018-10-19T11:28:47.290Z,59.47
2018-10-19T11:31:16.533Z,63.30
2018-10-19T11:33:45.670Z,66.40
2018-10-19T11:36:14.818Z,66.50
2018-10-19T11:38:43.967Z,68.10
2018-10-19T11:41:15.249Z,71.67
2018-10-19T11:43:44.434Z,66.30
2018-10-19T11:46:13.517Z,65.62
2018-10-19T11:48:42.806Z,65.63
2018-10-19T11:51:12.015Z,69.05
2018-10-19T11:53:42.247Z,65.40
2018-10-19T11:56:11.442Z,67.75
2018-10-19T11:58:40.614Z,67.05
2018-10-19T12:01:09.843Z,67.32
2018-10-19T12:03:39.011Z,67.50
2018-10-19T12:06:08.106Z,68.83
2018-10-19T12:08:37.265Z,66.67
2018-10-19T12:11:06.634Z,70.62
2018-10-19T12:13:35.842Z,66.23
2018-10-19T12:16:07.437Z,68.62
2018-10-19T12:18:36.542Z,67.30
2018-10-19T12:21:05.917Z,63.30
2018-10-19T12:23:35.066Z,63.37
2018-10-19T12:26:04.311Z,66.57
2018-10-19T12:28:33.529Z,65.22
2018-10-19T12:31:02.804Z,62.75
2018-10-19T12:33:31.871Z,65.32
2018-10-19T12:36:01.006Z,64.25
2018-10-19T12:38:30.101Z,62.37
2018-10-19T12:40:59.298Z,62.90
2018-10-19T12:43:28.998Z,66.47
2018-10-19T12:46:41.629Z,64.60
2018-10-19T12:49:12.052Z,63.60
2018-10-19T12:51:41.140Z,64.97
2018-10-19T12:54:10.499Z,63.17
2018-10-19T12:56:39.579Z,62.30
2018-10-19T12:59:08.875Z,61.63
2018-10-19T13:01:37.960Z,57.73
2018-10-19T13:04:07.107Z,55.88
2018-10-19T13:06:36.190Z,58.40
2018-10-19T13:09:10.457Z,56.70
2018-10-19T13:11:39.566Z,56.40
2018-10-19T13:14:08.726Z,54.73
2018-10-19T13:16:37.871Z,53.80
2018-10-19T13:19:07.128Z,53.80
2018-10-19T13:21:36.193Z,53.00
2018-10-19T13:24:05.811Z,55.90
2018-10-19T13:26:34.944Z,52.87
2018-10-19T13:29:04.374Z,53.63
2018-10-19T13:31:33.575Z,55.77
2018-10-19T13:34:03.097Z,53.80
2018-10-19T13:36:32.261Z,50.80
2018-10-19T13:39:01.348Z,49.77
2018-10-19T13:41:30.437Z,52.67
2018-10-19T13:43:59.466Z,49.80
2018-10-19T13:46:28.665Z,50.60
2018-10-19T13:48:58.697Z,55.50
2018-10-19T13:51:28.612Z,51.88
2018-10-19T13:53:58.919Z,59.73
2018-10-19T13:56:29.708Z,47.53
2018-10-19T13:58:58.936Z,50.23
2018-10-19T14:01:29.142Z,51.53
2018-10-19T14:03:58.842Z,50.28
2018-10-19T14:06:29.066Z,47.95
2018-10-19T14:08:58.914Z,50.85
2018-10-19T14:11:28.954Z,49.05
2018-10-19T14:13:58.962Z,48.78
2018-10-19T14:16:29.035Z,49.70
2018-10-19T14:18:59.848Z,53.23
2018-10-19T14:21:29.072Z,52.58
2018-10-19T14:23:59.152Z,55.83
2018-10-19T14:26:29.187Z,53.90
2018-10-19T14:28:59.178Z,55.70
2018-10-19T14:31:29.222Z,55.95
2018-10-19T14:33:59.255Z,56.10
2018-10-19T14:36:29.363Z,53.17
2018-10-19T14:38:59.427Z,55.90
2018-10-19T14:41:29.342Z,57.30
2018-10-19T14:43:59.403Z,59.50
2018-10-19T14:46:29.482Z,53.75
2018-10-19T14:48:59.568Z,57.03
2018-10-19T14:51:29.528Z,58.80
2018-10-19T14:53:59.486Z,57.17
2018-10-19T14:56:29.494Z,53.27
2018-10-19T14:58:59.643Z,51.98
2018-10-19T15:01:29.503Z,52.03
2018-10-19T15:03:59.662Z,49.70
2018-10-19T15:06:29.566Z,54.08
2018-10-19T15:08:59.705Z,54.63
2018-10-19T15:11:29.895Z,59.55
2018-10-19T15:13:59.864Z,61.92
2018-10-19T15:16:29.902Z,51.20
2018-10-19T15:19:00.282Z,48.65
2018-10-19T15:21:29.892Z,52.25
2018-10-19T15:23:59.870Z,52.03
2018-10-19T15:26:30.644Z,53.05
2018-10-19T15:28:59.975Z,50.83
2018-10-19T15:31:29.990Z,51.25
2018-10-19T15:33:59.970Z,51.00
2018-10-19T15:36:30.072Z,53.90
2018-10-19T15:39:00.329Z,51.37
2018-10-19T15:41:30.071Z,50.97
2018-10-19T15:44:00.046Z,49.53
2018-10-19T15:46:30.147Z,51.30
2018-10-19T15:49:01.945Z,51.05
2018-10-19T15:51:31.259Z,48.40
2018-10-19T15:54:00.934Z,60.27
2018-10-19T15:56:30.301Z,52.10
2018-10-19T15:59:00.238Z,52.43
2018-10-19T16:01:30.223Z,56.08
2018-10-19T16:04:00.210Z,51.10
2018-10-19T16:06:30.240Z,52.30
2018-10-19T16:09:00.309Z,52.53
2018-10-19T16:11:30.251Z,55.03
2018-10-19T16:14:00.230Z,56.55
2018-10-19T16:16:30.429Z,52.53
2018-10-19T16:19:00.378Z,52.53
2018-10-19T16:21:30.406Z,54.38
2018-10-19T16:24:00.348Z,53.38
2018-10-19T16:26:30.270Z,55.25
2018-10-19T16:29:01.337Z,51.65
2018-10-19T16:31:30.482Z,55.03
2018-10-19T16:34:00.377Z,56.48
2018-10-19T16:36:30.553Z,54.85
2018-10-19T16:39:00.453Z,87.00
2018-10-19T16:41:30.381Z,84.07
2018-10-19T16:44:00.486Z,59.55
2018-10-19T16:46:30.453Z,60.17
2018-10-19T16:49:00.334Z,54.93
2018-10-19T16:51:30.394Z,55.75
2018-10-19T16:54:00.364Z,57.83
2018-10-19T16:56:30.490Z,58.42
2018-10-19T16:59:00.487Z,66.60
2018-10-19T17:01:30.568Z,60.10
2018-10-19T17:04:02.859Z,62.80
2018-10-19T17:06:31.945Z,64.82
2018-10-19T17:09:01.080Z,58.70
2018-10-19T17:11:30.587Z,58.28
2018-10-19T17:14:00.460Z,60.65
2018-10-19T17:16:30.474Z,56.90
2018-10-19T17:19:00.615Z,59.40
2018-10-19T17:21:30.560Z,63.00
2018-10-19T17:24:00.721Z,61.13
2018-10-19T17:26:30.566Z,61.70
2018-10-19T17:29:00.802Z,59.60
2018-10-19T17:31:30.694Z,61.08
2018-10-19T17:34:00.710Z,60.35
2018-10-19T17:36:30.690Z,61.90
2018-10-19T17:39:00.726Z,59.80
2018-10-19T17:41:30.598Z,62.62
2018-10-19T17:44:00.680Z,61.08
2018-10-19T17:46:30.671Z,61.85
2018-10-19T17:49:00.741Z,60.43
2018-10-19T17:51:30.871Z,76.67
2018-10-19T17:54:00.844Z,60.20
2018-10-19T17:56:30.730Z,58.98
2018-10-19T17:59:00.656Z,64.87
2018-10-19T18:01:30.650Z,63.23
2018-10-19T18:04:00.821Z,57.50
2018-10-19T18:06:30.942Z,59.95
2018-10-19T18:09:00.829Z,58.92
2018-10-19T18:11:30.771Z,64.35
2018-10-19T18:14:01.669Z,61.73
2018-10-19T18:16:32.756Z,59.65
2018-10-19T18:19:01.942Z,56.93
2018-10-19T18:21:31.161Z,59.50
2018-10-19T18:24:00.826Z,58.70
2018-10-19T18:26:30.907Z,60.55
2018-10-19T18:29:01.070Z,60.73
2018-10-19T18:31:30.826Z,62.27
2018-10-19T18:34:00.902Z,61.92
2018-10-19T18:36:32.264Z,61.42
2018-10-19T18:39:01.455Z,61.20
2018-10-19T18:41:31.049Z,63.10
2018-10-19T18:44:01.034Z,60.38
2018-10-19T18:46:30.763Z,61.35
2018-10-19T18:49:00.989Z,61.92
2018-10-19T18:51:31.015Z,61.20
2018-10-19T18:54:01.254Z,61.67
2018-10-19T18:56:31.255Z,67.12
2018-10-19T18:59:01.053Z,67.53
2018-10-19T19:01:31.091Z,62.20
2018-10-19T19:04:01.010Z,67.27
2018-10-19T19:06:31.057Z,57.75
2018-10-19T19:09:01.096Z,59.98
2018-10-19T19:11:31.106Z,64.72
2018-10-19T19:14:01.103Z,63.87
2018-10-19T19:16:31.530Z,72.65
2018-10-19T19:19:01.086Z,68.65
2018-10-19T19:21:31.172Z,58.73
2018-10-19T19:24:06.499Z,64.05
2018-10-19T19:26:35.600Z,64.67
2018-10-19T19:29:04.805Z,64.77
2018-10-19T19:31:33.934Z,61.90
2018-10-19T19:34:08.507Z,63.50
2018-10-19T19:36:37.707Z,65.35
2018-10-19T19:39:09.160Z,67.80
2018-10-19T19:41:43.907Z,63.33
2018-10-19T19:44:13.148Z,66.50
2018-10-19T19:46:42.267Z,63.35
2018-10-19T19:49:16.582Z,63.43
2018-10-19T19:51:45.641Z,62.27
2018-10-19T19:54:14.863Z,61.27
2018-10-19T19:56:44.046Z,61.70
2018-10-19T19:59:13.217Z,64.50
2018-10-19T20:01:42.337Z,65.63
2018-10-19T20:04:11.529Z,62.47
2018-10-19T20:06:40.675Z,70.07
2018-10-19T20:09:09.865Z,67.70
2018-10-19T20:11:39.054Z,72.23
2018-10-19T20:14:08.132Z,67.77
2018-10-19T20:16:37.267Z,59.90
2018-10-19T20:19:06.620Z,54.65
2018-10-19T20:21:35.717Z,58.63
2018-10-19T20:24:05.193Z,58.77
2018-10-19T20:26:34.354Z,59.80
2018-10-19T20:29:03.459Z,61.50
2018-10-19T20:31:32.554Z,57.00
2018-10-19T20:34:01.734Z,60.50
2018-10-19T20:36:31.686Z,58.58
2018-10-19T20:39:01.646Z,64.22
2018-10-19T20:41:31.632Z,63.55
2018-10-19T20:44:01.623Z,66.75
2018-10-19T20:46:31.623Z,68.25
2018-10-19T20:49:01.637Z,68.12
2018-10-19T20:51:31.673Z,63.78
2018-10-19T20:54:01.694Z,62.13
2018-10-19T20:56:31.746Z,64.65
2018-10-19T20:59:01.798Z,63.92
2018-10-19T21:01:31.802Z,63.05
2018-10-19T21:04:01.801Z,60.67
2018-10-19T21:06:31.817Z,63.78
2018-10-19T21:09:01.870Z,60.75
2018-10-19T21:11:31.858Z,61.73
2018-10-19T21:14:01.834Z,63.28
2018-10-19T21:16:31.730Z,62.80
2018-10-19T21:19:02.020Z,66.94
2018-10-19T21:21:31.917Z,60.50
2018-10-19T21:24:01.973Z,62.27
2018-10-19T21:26:31.919Z,63.38
2018-10-19T21:29:01.965Z,61.73
2018-10-19T21:31:31.931Z,61.80
2018-10-19T21:34:04.276Z,62.48
2018-10-19T21:36:33.392Z,62.10
2018-10-19T21:39:02.536Z,62.43
2018-10-19T21:41:32.025Z,62.93
2018-10-19T21:44:02.068Z,62.48
2018-10-19T21:46:32.043Z,58.42
2018-10-19T21:49:02.015Z,57.33
2018-10-19T21:51:32.168Z,57.53
2018-10-19T21:54:02.131Z,63.00
2018-10-19T21:56:32.066Z,64.62
2018-10-19T21:59:02.316Z,69.87
2018-10-19T22:01:32.188Z,66.07
2018-10-19T22:04:02.135Z,67.27
2018-10-19T22:06:32.259Z,66.60
2018-10-19T22:09:02.242Z,62.73
2018-10-19T22:11:32.270Z,68.40
2018-10-19T22:14:02.050Z,63.38
2018-10-19T22:16:32.328Z,63.03
2018-10-19T22:19:02.210Z,60.30
2018-10-19T22:21:32.353Z,59.38
2018-10-19T22:24:02.270Z,65.57
2018-10-19T22:26:32.505Z,66.76
2018-10-19T22:29:02.288Z,56.77
2018-10-19T22:31:32.302Z,60.43
2018-10-19T22:34:02.371Z,59.23
2018-10-19T22:36:32.335Z,62.10
2018-10-19T22:39:02.303Z,65.32
2018-10-19T22:41:32.378Z,64.58
2018-10-19T22:44:02.443Z,62.35
2018-10-19T22:46:32.347Z,64.15
2018-10-19T22:49:02.439Z,69.22
2018-10-19T22:51:32.455Z,62.18
2018-10-19T22:54:02.432Z,68.42
2018-10-19T22:56:32.644Z,63.04
2018-10-19T22:59:02.578Z,62.62
2018-10-19T23:01:32.478Z,63.30
2018-10-19T23:04:02.597Z,64.20
2018-10-19T23:06:32.535Z,65.48
2018-10-19T23:09:02.618Z,65.37
2018-10-19T23:11:32.674Z,65.84
2018-10-19T23:14:02.551Z,65.90
2018-10-19T23:16:33.139Z,60.38
2018-10-19T23:19:02.678Z,65.15
2018-10-19T23:21:32.662Z,54.98
2018-10-19T23:24:02.875Z,55.52
2018-10-19T23:26:32.746Z,53.84
2018-10-19T23:29:03.042Z,59.67
2018-10-19T23:31:32.889Z,58.94
2018-10-19T23:34:02.819Z,60.83
2018-10-19T23:36:32.879Z,61.80
2018-10-19T23:39:02.899Z,60.63
2018-10-19T23:41:32.919Z,61.26
2018-10-19T23:44:02.851Z,65.22
2018-10-19T23:46:32.992Z,67.22
2018-10-19T23:49:02.944Z,62.88
2018-10-19T23:51:32.923Z,65.92
2018-10-19T23:54:02.995Z,68.75
2018-10-19T23:56:33.029Z,66.94
2018-10-19T23:59:02.941Z,64.37
